Time;durP1;ratioP1;P1;durP2;ratioP2;P2;SDS_P1;SDS_P2;PMS_P1;PMS_P2;Temp;Humidity;BMP_temperature;BMP_pressure;BME280_temperature;BME280_humidity;BME280_pressure;Samples;Min_cycle;Max_cycle;Signal;HPM_P1;HPM_P2
2022/10/31 00:01:20;;;;;;;249.25;19.37;;;;;;;10.67;100.00;99367.16;4467831;32;20526;-77
2022/10/31 00:03:47;;;;;;;195.65;18.10;;;;;;;10.59;100.00;99359.91;4474314;32;20529;-77
2022/10/31 00:06:17;;;;;;;317.37;20.52;;;;;;;10.70;100.00;99360.84;4485728;31;20152;-76
2022/10/31 00:08:52;;;;;;;166.77;16.02;;;;;;;10.62;100.00;99358.84;4473862;31;20200;-76
2022/10/31 00:11:19;;;;;;;319.83;19.92;;;;;;;10.70;100.00;99358.22;4470245;32;20141;-76
2022/10/31 00:13:46;;;;;;;209.23;17.60;;;;;;;10.76;100.00;99362.97;4470133;32;20152;-76
2022/10/31 00:16:18;;;;;;;310.38;21.02;;;;;;;10.73;100.00;99363.22;4470290;32;20092;-77
2022/10/31 00:18:53;;;;;;;197.27;15.15;;;;;;;10.63;100.00;99371.00;4470188;32;20093;-76
2022/10/31 00:21:21;;;;;;;295.75;18.60;;;;;;;10.61;100.00;99367.66;4470143;32;20081;-76
2022/10/31 00:23:49;;;;;;;143.95;18.17;;;;;;;10.62;100.00;99361.47;4470134;32;20160;-76
2022/10/31 00:26:16;;;;;;;76.47;12.68;;;;;;;10.67;100.00;99369.78;4470099;32;20101;-76
2022/10/31 00:28:43;;;;;;;133.50;15.27;;;;;;;10.68;100.00;99358.34;4470023;32;20104;-76
2022/10/31 00:31:12;;;;;;;113.55;15.15;;;;;;;10.61;100.00;99360.63;4469941;32;20150;-76
2022/10/31 00:33:40;;;;;;;150.65;15.90;;;;;;;10.58;100.00;99357.41;4470062;32;20093;-76
2022/10/31 00:36:11;;;;;;;133.07;16.55;;;;;;;10.49;100.00;99351.13;4469898;32;20089;-76
2022/10/31 00:38:40;;;;;;;193.25;16.77;;;;;;;10.57;100.00;99343.50;4470088;32;20076;-76
2022/10/31 00:41:07;;;;;;;133.65;17.33;;;;;;;10.58;100.00;99339.94;4469987;32;20124;-76
2022/10/31 00:43:34;;;;;;;210.95;18.60;;;;;;;10.60;100.00;99332.75;4469936;32;20156;-76
2022/10/31 00:46:02;;;;;;;184.50;17.02;;;;;;;10.62;100.00;99336.09;4470317;32;20160;-76
2022/10/31 00:48:29;;;;;;;90.22;15.93;;;;;;;10.60;100.00;99331.94;4469856;32;20493;-76
2022/10/31 00:50:56;;;;;;;204.00;18.50;;;;;;;10.61;100.00;99339.69;4469985;32;20592;-76
2022/10/31 00:53:24;;;;;;;309.92;20.10;;;;;;;10.61;100.00;99331.81;4470117;32;20455;-76
2022/10/31 00:55:51;;;;;;;251.25;18.60;;;;;;;10.58;100.00;99333.84;4470127;32;20426;-76
2022/10/31 00:58:19;;;;;;;421.20;28.05;;;;;;;10.54;100.00;99327.19;4469631;32;20126;-76
2022/10/31 01:00:55;;;;;;;258.33;20.27;;;;;;;10.59;100.00;99328.47;4470022;32;20089;-76
2022/10/31 01:03:31;;;;;;;595.85;32.65;;;;;;;10.62;100.00;99325.59;4473980;32;20096;-76
2022/10/31 01:06:04;;;;;;;319.87;22.67;;;;;;;10.57;100.00;99327.78;4485616;31;20104;-76
2022/10/31 01:08:32;;;;;;;419.23;25.15;;;;;;;10.56;100.00;99338.37;4475065;31;20608;-76
2022/10/31 01:11:17;;;;;;;367.73;27.05;;;;;;;10.60;100.00;99331.94;4469765;32;20119;-77
2022/10/31 01:13:44;;;;;;;377.08;23.35;;;;;;;10.63;100.00;99334.31;4469990;32;20486;-76
2022/10/31 01:16:14;;;;;;;438.63;26.70;;;;;;;10.61;100.00;99333.59;4469323;32;20088;-76
2022/10/31 01:18:42;;;;;;;196.87;21.30;;;;;;;10.56;100.00;99325.28;4469698;32;20118;-76
2022/10/31 01:21:14;;;;;;;407.20;26.70;;;;;;;10.61;100.00;99329.19;4469683;32;20123;-77
2022/10/31 01:23:42;;;;;;;408.20;30.33;;;;;;;10.63;100.00;99331.69;4469636;32;20077;-77
2022/10/31 01:26:19;;;;;;;381.73;23.42;;;;;;;10.67;100.00;99333.09;4469910;32;20175;-76
2022/10/31 01:28:49;;;;;;;308.52;24.35;;;;;;;10.60;100.00;99331.94;4469689;32;20113;-76
2022/10/31 01:31:18;;;;;;;404.08;28.77;;;;;;;10.58;100.00;99325.97;4469770;32;20418;-76
2022/10/31 01:33:45;;;;;;;430.00;26.92;;;;;;;10.55;100.00;99326.22;4469588;32;20181;-76
2022/10/31 01:36:19;;;;;;;545.55;33.17;;;;;;;10.56;100.00;99325.28;4469460;32;20085;-76
2022/10/31 01:38:49;;;;;;;468.17;28.20;;;;;;;10.54;100.00;99327.19;4469475;32;20084;-76
2022/10/31 01:41:22;;;;;;;344.52;21.67;;;;;;;10.46;100.00;99325.16;4469528;32;20076;-76
2022/10/31 01:43:59;;;;;;;359.98;21.42;;;;;;;10.44;100.00;99325.28;4469514;32;20498;-76
2022/10/31 01:46:35;;;;;;;472.92;24.40;;;;;;;10.48;100.00;99324.09;4469613;32;20115;-76
2022/10/31 01:49:06;;;;;;;342.05;24.87;;;;;;;10.44;100.00;99314.00;4468276;32;20111;-76
2022/10/31 01:51:36;;;;;;;242.80;17.58;;;;;;;10.48;100.00;99324.09;4468289;32;20572;-76
2022/10/31 01:54:08;;;;;;;334.30;21.00;;;;;;;10.37;100.00;99328.53;4468334;32;20150;-76
2022/10/31 01:56:39;;;;;;;354.15;21.65;;;;;;;10.40;100.00;99331.75;4469382;32;20084;-76
2022/10/31 01:59:09;;;;;;;395.10;22.90;;;;;;;10.38;100.00;99323.16;4468229;32;20188;-76
2022/10/31 02:01:37;;;;;;;263.10;17.40;;;;;;;10.37;100.00;99321.50;4469361;32;20080;-76
2022/10/31 02:04:05;;;;;;;346.45;18.65;;;;;;;10.34;100.00;99321.75;4477774;32;20123;-76
2022/10/31 02:06:40;;;;;;;205.10;15.43;;;;;;;10.28;100.00;99319.59;4484904;31;20084;-76
2022/10/31 02:09:07;;;;;;;347.20;22.52;;;;;;;10.28;100.00;99322.22;4455468;32;20454;-76
2022/10/31 02:11:35;;;;;;;416.23;23.23;;;;;;;10.27;100.00;99312.69;4453896;32;20382;-76
2022/10/31 02:14:03;;;;;;;289.25;17.00;;;;;;;10.29;100.00;99310.75;4452494;32;20166;-76
2022/10/31 02:16:30;;;;;;;397.25;20.75;;;;;;;10.34;100.00;99305.19;4453970;32;20101;-76
2022/10/31 02:18:58;;;;;;;316.92;20.17;;;;;;;10.38;100.00;99309.25;4453605;32;20101;-76
2022/10/31 02:21:38;;;;;;;212.95;15.60;;;;;;;10.35;100.00;99315.53;4452346;32;20529;-76
2022/10/31 02:24:43;;;;;;;503.70;24.50;;;;;;;10.33;100.00;99312.22;4452592;32;20166;-76
2022/10/31 02:27:25;;;;;;;466.65;22.37;;;;;;;10.36;100.00;99309.38;4452418;32;20089;-76
2022/10/31 02:30:09;;;;;;;420.38;20.92;;;;;;;10.36;100.00;99306.75;4452639;32;20115;-76
2022/10/31 02:33:15;;;;;;;301.60;15.27;;;;;;;10.37;100.00;99310.19;4452146;32;20463;-76
2022/10/31 02:36:05;;;;;;;351.15;18.17;;;;;;;10.35;100.00;99312.94;4453598;32;20085;-76
2022/10/31 02:38:41;;;;;;;284.67;16.12;;;;;;;10.33;100.00;99314.84;4452433;32;20454;-76
2022/10/31 02:41:48;;;;;;;225.98;14.75;;;;;;;10.26;100.00;99318.88;4452611;32;20144;-76
2022/10/31 02:44:30;;;;;;;268.37;14.48;;;;;;;10.29;100.00;99313.38;4420138;32;20146;-76
2022/10/31 02:46:59;;;;;;;301.77;17.48;;;;;;;10.19;100.00;99322.91;4420352;32;20272;-76
2022/10/31 02:49:40;;;;;;;342.33;18.85;;;;;;;10.23;100.00;99324.34;4420264;32;20117;-76
2022/10/31 02:52:23;;;;;;;449.95;20.50;;;;;;;10.18;100.00;99319.47;4407855;32;20481;-76
2022/10/31 02:54:52;;;;;;;333.17;16.15;;;;;;;10.18;100.00;99321.28;4420056;32;20090;-76
2022/10/31 02:57:30;;;;;;;360.63;19.27;;;;;;;10.08;100.00;99322.00;4419974;32;20297;-77
2022/10/31 03:00:03;;;;;;;232.68;16.12;;;;;;;10.14;100.00;99320.66;4407665;32;20129;-77
2022/10/31 03:02:38;;;;;;;422.15;20.92;;;;;;;10.16;100.00;99323.16;4420043;32;20136;-76
2022/10/31 03:05:30;;;;;;;376.30;19.30;;;;;;;10.12;100.00;99320.78;4434775;32;20435;-76
2022/10/31 03:07:57;;;;;;;197.52;13.77;;;;;;;10.11;100.00;99324.38;4428689;32;20106;-76
2022/10/31 03:10:52;;;;;;;238.20;14.77;;;;;;;10.19;100.00;99321.16;4419861;32;20119;-76
2022/10/31 03:13:38;;;;;;;280.23;16.15;;;;;;;10.09;100.00;99318.41;4420060;32;20097;-76
2022/10/31 03:16:27;;;;;;;562.28;28.20;;;;;;;10.09;100.00;99323.66;4420183;32;20090;-77
2022/10/31 03:19:02;;;;;;;314.45;20.23;;;;;;;10.10;100.00;99321.88;4455555;32;20113;-76
2022/10/31 03:21:40;;;;;;;210.50;12.68;;;;;;;9.95;100.00;99321.28;4468832;32;20472;-76
2022/10/31 03:24:08;;;;;;;199.45;14.02;;;;;;;10.03;100.00;99326.75;4467119;32;20092;-76
2022/10/31 03:26:38;;;;;;;182.07;13.38;;;;;;;10.05;100.00;99324.84;4468738;32;20101;-76
2022/10/31 03:29:06;;;;;;;510.73;26.87;;;;;;;10.03;100.00;99334.59;4467274;32;20131;-76
2022/10/31 03:32:08;;;;;;;176.93;12.37;;;;;;;10.07;100.00;99327.34;4468584;32;20164;-76
2022/10/31 03:34:36;;;;;;;287.42;14.18;;;;;;;10.07;100.00;99329.97;4419584;32;20323;-76
2022/10/31 03:37:06;;;;;;;387.23;18.00;;;;;;;10.07;100.00;99325.56;4407210;32;20109;-76
2022/10/31 03:39:34;;;;;;;317.95;15.55;;;;;;;10.07;100.00;99333.41;4408215;32;20188;-76
2022/10/31 03:42:11;;;;;;;166.18;10.32;;;;;;;10.09;100.00;99338.53;4409389;32;20156;-76
2022/10/31 03:44:41;;;;;;;181.57;13.05;;;;;;;10.13;100.00;99343.41;4409156;32;20085;-76
2022/10/31 03:47:09;;;;;;;282.83;16.52;;;;;;;10.09;100.00;99334.12;4409193;32;20160;-76
2022/10/31 03:49:36;;;;;;;175.60;11.70;;;;;;;10.18;100.00;99339.59;4409172;32;20812;-76
2022/10/31 03:52:26;;;;;;;225.55;14.85;;;;;;;10.17;100.00;99335.31;4421737;32;20132;-76
2022/10/31 03:54:58;;;;;;;141.55;12.77;;;;;;;10.09;100.00;99333.28;4361254;32;20656;-76
2022/10/31 03:57:31;;;;;;;191.40;12.37;;;;;;;10.12;100.00;99336.50;4361443;32;20441;-76
2022/10/31 04:00:09;;;;;;;110.55;10.90;;;;;;;10.06;100.00;99341.38;4361328;32;20107;-76
2022/10/31 04:03:03;;;;;;;75.15;8.75;;;;;;;10.08;100.00;99335.09;4361122;32;20465;-76
2022/10/31 04:05:31;;;;;;;107.00;10.15;;;;;;;10.11;100.00;99337.47;4346455;33;20092;-76
2022/10/31 04:08:00;;;;;;;111.28;10.32;;;;;;;9.95;100.00;99345.66;4352515;32;20159;-76
2022/10/31 04:10:28;;;;;;;66.45;10.30;;;;;;;9.93;100.00;99346.72;4373545;32;20140;-76
2022/10/31 04:13:06;;;;;;;188.75;11.52;;;;;;;10.00;100.00;99353.16;4394320;32;20094;-76
2022/10/31 04:15:36;;;;;;;150.62;11.77;;;;;;;9.99;100.00;99348.03;4406260;32;20140;-76
2022/10/31 04:18:04;;;;;;;92.65;9.50;;;;;;;9.95;100.00;99347.47;4393589;32;20557;-76
2022/10/31 04:20:39;;;;;;;152.73;12.13;;;;;;;9.98;100.00;99352.47;4393698;32;20218;-76
2022/10/31 04:23:22;;;;;;;126.68;11.65;;;;;;;9.94;100.00;99353.63;4406355;32;20126;-76
2022/10/31 04:25:49;;;;;;;25.40;7.78;;;;;;;9.96;100.00;99354.34;4393569;32;20178;-76
2022/10/31 04:28:18;;;;;;;107.93;9.50;;;;;;;10.00;100.00;99345.31;4406086;32;20184;-76
2022/10/31 04:30:50;;;;;;;81.13;9.30;;;;;;;9.96;100.00;99354.34;4406019;32;20093;-76
2022/10/31 04:33:18;;;;;;;82.70;10.05;;;;;;;9.94;100.00;99351.03;4470008;32;20092;-76
2022/10/31 04:35:45;;;;;;;112.78;10.52;;;;;;;10.03;100.00;99358.16;4470334;32;20164;-76
2022/10/31 04:38:13;;;;;;;94.15;10.20;;;;;;;10.05;100.00;99358.88;4469823;32;20120;-76
2022/10/31 04:40:40;;;;;;;94.78;11.90;;;;;;;10.05;100.00;99364.12;4470191;32;20093;-76
2022/10/31 04:43:08;;;;;;;138.27;11.80;;;;;;;10.11;100.00;99363.66;4470296;32;20118;-76
2022/10/31 04:45:38;;;;;;;210.30;16.55;;;;;;;10.12;100.00;99365.28;4470190;32;20155;-76
2022/10/31 04:48:06;;;;;;;75.65;10.88;;;;;;;10.03;100.00;99360.78;4470281;32;20119;-76
2022/10/31 04:50:33;;;;;;;83.75;10.65;;;;;;;10.05;100.00;99361.50;4469367;32;20154;-76
2022/10/31 04:53:01;;;;;;;100.82;12.80;;;;;;;10.06;100.00;99364.94;4470286;32;20104;-76
2022/10/31 04:55:29;;;;;;;70.22;9.55;;;;;;;10.09;100.00;99365.53;4470168;32;20119;-76
2022/10/31 04:57:58;;;;;;;44.80;8.68;;;;;;;10.01;100.00;99365.31;4470249;32;20097;-76
2022/10/31 05:00:26;;;;;;;153.52;11.40;;;;;;;10.03;100.00;99376.47;4470031;32;20158;-76
2022/10/31 05:02:56;;;;;;;67.35;8.68;;;;;;;10.03;100.00;99371.25;4470847;32;20097;-76
2022/10/31 05:05:30;;;;;;;87.03;10.07;;;;;;;10.07;100.00;99375.31;4485756;31;20467;-76
2022/10/31 05:07:57;;;;;;;114.65;11.45;;;;;;;10.12;100.00;99381.00;4478877;31;20490;-76
2022/10/31 05:10:28;;;;;;;161.68;12.45;;;;;;;10.11;100.00;99373.25;4470062;32;20146;-76
2022/10/31 05:12:59;;;;;;;96.25;12.05;;;;;;;10.22;100.00;99369.81;4470154;32;20089;-76
2022/10/31 05:15:29;;;;;;;253.88;14.18;;;;;;;10.24;100.00;99375.78;4470079;32;20480;-76
2022/10/31 05:18:00;;;;;;;173.87;11.88;;;;;;;10.19;100.00;99381.38;4470081;32;20554;-76
2022/10/31 05:20:30;;;;;;;78.50;10.18;;;;;;;10.13;100.00;99377.44;4469989;32;20101;-76
2022/10/31 05:22:59;;;;;;;208.82;15.68;;;;;;;10.14;100.00;99367.78;4469976;32;20172;-76
2022/10/31 05:25:28;;;;;;;98.82;11.02;;;;;;;10.17;100.00;99367.53;4470127;32;20108;-76
2022/10/31 05:27:56;;;;;;;98.25;10.20;;;;;;;10.23;100.00;99369.69;4470055;32;20386;-76
2022/10/31 05:30:29;;;;;;;191.27;14.18;;;;;;;10.09;100.00;99370.75;4470111;32;20516;-76
2022/10/31 05:32:57;;;;;;;36.33;8.88;;;;;;;10.12;100.00;99367.09;4469746;32;20093;-76
2022/10/31 05:35:32;;;;;;;127.20;11.88;;;;;;;10.11;100.00;99374.13;4470071;32;20096;-76
2022/10/31 05:38:00;;;;;;;216.70;14.45;;;;;;;10.11;100.00;99368.87;4469855;32;20106;-76
2022/10/31 05:40:28;;;;;;;89.53;9.75;;;;;;;10.12;100.00;99374.94;4469856;32;20120;-76
2022/10/31 05:42:56;;;;;;;161.77;12.00;;;;;;;10.13;100.00;99371.38;4469690;32;20123;-76
2022/10/31 05:45:24;;;;;;;231.50;18.60;;;;;;;10.14;100.00;99370.41;4469869;32;20088;-76
2022/10/31 05:47:52;;;;;;;110.12;11.02;;;;;;;10.19;100.00;99376.13;4469881;32;20092;-76
2022/10/31 05:50:21;;;;;;;193.18;11.95;;;;;;;10.22;100.00;99375.03;4469827;32;20161;-76
2022/10/31 05:52:56;;;;;;;115.68;10.25;;;;;;;10.24;100.00;99375.78;4469552;32;20437;-76
2022/10/31 05:55:25;;;;;;;232.82;13.70;;;;;;;10.29;100.00;99377.09;4469900;32;20085;-76
2022/10/31 05:57:54;;;;;;;402.45;19.85;;;;;;;10.20;100.00;99376.97;4469943;32;20088;-76
2022/10/31 06:00:22;;;;;;;201.48;13.80;;;;;;;10.16;100.00;99397.31;4469830;32;20097;-76
2022/10/31 06:02:49;;;;;;;211.30;11.98;;;;;;;10.22;100.00;99386.38;4469687;32;20124;-76
2022/10/31 06:05:18;;;;;;;312.08;19.42;;;;;;;10.32;100.00;99389.09;4485125;31;20088;-76
2022/10/31 06:07:45;;;;;;;200.55;14.55;;;;;;;10.25;100.00;99390.50;4479612;31;20126;-76
2022/10/31 06:10:13;;;;;;;190.32;17.12;;;;;;;10.23;100.00;99397.66;4469479;32;20147;-76
2022/10/31 06:12:40;;;;;;;163.82;13.85;;;;;;;10.22;100.00;99390.75;4469730;32;20115;-76
2022/10/31 06:15:08;;;;;;;229.60;17.15;;;;;;;10.27;100.00;99393.88;4469745;32;20061;-76
2022/10/31 06:17:35;;;;;;;425.42;25.25;;;;;;;10.34;100.00;99391.63;4469624;32;20176;-76
2022/10/31 06:20:05;;;;;;;310.10;20.37;;;;;;;10.27;100.00;99388.63;4469595;32;20121;-76
2022/10/31 06:22:34;;;;;;;471.63;26.12;;;;;;;10.11;100.00;99400.28;4469585;32;20131;-76
2022/10/31 06:25:01;;;;;;;329.38;18.08;;;;;;;10.17;100.00;99398.16;4469407;32;20146;-76
2022/10/31 06:27:28;;;;;;;424.00;24.70;;;;;;;10.14;100.00;99407.06;4466786;32;72251;-76
2022/10/31 06:29:56;;;;;;;361.08;22.35;;;;;;;10.19;100.00;99407.56;4469631;32;20101;-76
2022/10/31 06:32:23;;;;;;;194.95;17.50;;;;;;;10.23;100.00;99393.25;4469221;32;20092;-76
2022/10/31 06:34:51;;;;;;;237.07;16.12;;;;;;;10.22;100.00;99396.00;4469278;32;20092;-76
2022/10/31 06:37:18;;;;;;;366.52;29.42;;;;;;;10.28;100.00;99393.75;4469359;32;20084;-76
2022/10/31 06:39:45;;;;;;;260.88;19.33;;;;;;;10.19;100.00;99399.69;4469419;32;20119;-76
2022/10/31 06:42:15;;;;;;;101.78;14.10;;;;;;;10.19;100.00;99385.75;4469325;32;20119;-76
2022/10/31 06:44:43;;;;;;;195.80;17.95;;;;;;;10.22;100.00;99391.59;4469039;32;20077;-76
2022/10/31 06:47:16;;;;;;;205.53;19.10;;;;;;;10.25;100.00;99396.59;4469540;32;20072;-76
2022/10/31 06:49:44;;;;;;;237.95;18.45;;;;;;;10.40;100.00;99393.75;4469377;32;20812;-76
2022/10/31 06:52:11;;;;;;;323.77;20.98;;;;;;;10.47;100.00;99401.00;4468188;32;20460;-76
2022/10/31 06:54:39;;;;;;;525.38;28.77;;;;;;;10.51;100.00;99406.00;4468755;32;20454;-76
2022/10/31 06:57:06;;;;;;;502.05;34.95;;;;;;;10.47;100.00;99411.47;4469165;32;20084;-76
2022/10/31 06:59:36;;;;;;;461.52;28.95;;;;;;;10.38;100.00;99417.44;4469177;32;20124;-76
2022/10/31 07:02:04;;;;;;;295.00;18.70;;;;;;;10.27;100.00;99420.88;4468942;32;20088;-76
2022/10/31 07:04:32;;;;;;;375.65;23.95;;;;;;;10.38;100.00;99412.22;4480337;32;20092;-76
2022/10/31 07:07:00;;;;;;;193.68;15.75;;;;;;;10.38;100.00;99424.47;4484124;31;20085;-76
2022/10/31 07:09:27;;;;;;;267.65;17.05;;;;;;;10.38;100.00;99417.44;4468773;32;20123;-76
2022/10/31 07:11:54;;;;;;;286.65;17.55;;;;;;;10.39;100.00;99418.31;4468972;32;20097;-76
2022/10/31 07:14:22;;;;;;;346.13;19.80;;;;;;;10.48;100.00;99423.63;4470076;32;20092;-76
2022/10/31 07:16:50;;;;;;;257.42;15.80;;;;;;;10.52;100.00;99433.88;4470827;32;20143;-76
2022/10/31 07:19:17;;;;;;;412.20;24.05;;;;;;;10.42;100.00;99425.91;4470703;32;20097;-76
2022/10/31 07:21:45;;;;;;;270.55;20.23;;;;;;;10.51;100.00;99435.66;4470646;32;20092;-76
2022/10/31 07:24:13;;;;;;;228.40;14.98;;;;;;;10.58;100.00;99429.00;4470855;32;20088;-76
2022/10/31 07:26:47;;;;;;;254.27;16.85;;;;;;;10.73;100.00;99437.41;4470634;32;20093;-75
2022/10/31 07:29:14;;;;;;;109.07;12.88;;;;;;;10.68;100.00;99444.81;4470956;32;20093;-76
2022/10/31 07:31:43;;;;;;;151.87;14.35;;;;;;;10.80;100.00;99443.03;4470782;32;20133;-76
2022/10/31 07:34:11;;;;;;;240.12;16.90;;;;;;;10.82;100.00;99448.97;4470633;32;20457;-76
2022/10/31 07:36:41;;;;;;;202.85;14.73;;;;;;;10.79;100.00;99443.97;4470810;32;20138;-76
2022/10/31 07:39:08;;;;;;;355.98;23.70;;;;;;;10.68;100.00;99439.59;4470383;32;20446;-76
2022/10/31 07:41:35;;;;;;;223.00;17.20;;;;;;;10.56;100.00;99443.16;4470738;32;20111;-76
2022/10/31 07:44:03;;;;;;;281.92;19.23;;;;;;;10.47;100.00;99445.53;4470579;32;20707;-76
2022/10/31 07:46:33;;;;;;;209.37;16.60;;;;;;;10.59;100.00;99441.12;4470567;32;20093;-76
2022/10/31 07:49:06;;;;;;;284.77;19.02;;;;;;;10.73;100.00;99436.59;4470794;32;20502;-76
2022/10/31 07:51:38;;;;;;;189.95;17.83;;;;;;;10.79;100.00;99442.16;4470541;32;20093;-76
2022/10/31 07:54:12;;;;;;;146.37;15.52;;;;;;;10.84;100.00;99444.44;4470638;32;20156;-76
2022/10/31 07:56:40;;;;;;;114.03;13.77;;;;;;;10.93;100.00;99437.63;4470232;32;20154;-76
2022/10/31 07:59:10;;;;;;;218.65;16.92;;;;;;;11.04;100.00;99442.84;4470592;32;20116;-76
2022/10/31 08:01:37;;;;;;;275.38;20.85;;;;;;;11.14;100.00;99441.16;4470505;32;20101;-76
2022/10/31 08:04:04;;;;;;;165.93;16.12;;;;;;;10.97;100.00;99444.28;4478766;32;20100;-76
2022/10/31 08:06:39;;;;;;;300.42;21.70;;;;;;;11.03;100.00;99449.03;4485866;31;20153;-76
2022/10/31 08:09:06;;;;;;;153.60;15.55;;;;;;;10.97;100.00;99447.72;4471940;31;20157;-76
2022/10/31 08:11:33;;;;;;;99.87;16.00;;;;;;;11.06;100.00;99440.94;4470538;32;20109;-76
2022/10/31 08:14:01;;;;;;;109.40;15.65;;;;;;;11.10;100.00;99434.50;4470422;32;20168;-76
2022/10/31 08:16:28;;;;;;;118.85;16.05;;;;;;;11.37;100.00;99438.47;4470485;32;20119;-76
2022/10/31 08:18:55;;;;;;;104.05;15.00;;;;;;;11.39;100.00;99440.94;4470342;32;20123;-76
2022/10/31 08:21:22;;;;;;;54.80;13.45;;;;;;;11.45;100.00;99438.66;4470441;32;20084;-76
2022/10/31 08:23:50;;;;;;;128.60;15.35;;;;;;;11.53;100.00;99451.94;4470141;32;20462;-76
2022/10/31 08:26:18;;;;;;;78.30;13.35;;;;;;;11.61;100.00;99458.38;4469436;32;20119;-76
2022/10/31 08:28:46;;;;;;;178.32;19.48;;;;;;;11.67;100.00;99448.22;4470220;32;20104;-76
2022/10/31 08:31:13;;;;;;;87.60;14.02;;;;;;;11.70;100.00;99452.34;4470383;32;20093;-76
2022/10/31 08:33:45;;;;;;;35.30;13.00;;;;;;;11.86;100.00;99458.00;4470028;32;20131;-76
2022/10/31 08:36:18;;;;;;;151.23;15.05;;;;;;;11.95;100.00;99450.34;4470208;32;20166;-76
2022/10/31 08:38:47;;;;;;;222.20;17.37;;;;;;;11.90;100.00;99453.34;4470175;32;20104;-76
2022/10/31 08:41:15;;;;;;;72.85;13.50;;;;;;;11.91;100.00;99449.72;4470431;32;20104;-76
2022/10/31 08:43:42;;;;;;;79.35;13.23;;;;;;;11.96;100.00;99447.59;4470078;32;20777;-76
2022/10/31 08:46:10;;;;;;;179.30;15.55;;;;;;;11.99;100.00;99449.12;4470199;32;20096;-76
2022/10/31 08:48:38;;;;;;;263.15;17.95;;;;;;;12.01;100.00;99447.22;4470186;32;20226;-76
2022/10/31 08:51:06;;;;;;;235.05;16.98;;;;;;;12.03;100.00;99451.34;4470319;32;20158;-76
2022/10/31 08:53:33;;;;;;;86.55;15.18;;;;;;;11.90;100.00;99446.28;4470007;32;20601;-76
2022/10/31 08:56:02;;;;;;;201.02;16.67;;;;;;;12.02;100.00;99448.84;4470251;32;20165;-76
2022/10/31 08:58:29;;;;;;;212.18;17.92;;;;;;;12.10;100.00;99456.09;4469834;32;20161;-76
2022/10/31 09:00:59;;;;;;;123.57;16.52;;;;;;;11.93;100.00;99452.25;4470194;32;20140;-76
2022/10/31 09:03:29;;;;;;;219.02;19.37;;;;;;;11.94;100.00;99454.75;4474025;32;20092;-76
2022/10/31 09:05:58;;;;;;;264.90;20.42;;;;;;;11.94;100.00;99453.94;4485731;31;20104;-76
2022/10/31 09:08:29;;;;;;;219.55;20.45;;;;;;;11.86;100.00;99462.41;4475778;31;20127;-76
2022/10/31 09:10:57;;;;;;;289.30;19.87;;;;;;;11.88;100.00;99463.97;4469918;32;20084;-76
2022/10/31 09:13:24;;;;;;;102.55;14.40;;;;;;;11.77;100.00;99457.94;4470081;32;20118;-76
2022/10/31 09:15:58;;;;;;;79.28;16.58;;;;;;;11.80;100.00;99457.69;4469928;32;20085;-75
2022/10/31 09:18:27;;;;;;;336.35;22.27;;;;;;;11.93;100.00;99461.00;4469881;32;20092;-76
2022/10/31 09:20:57;;;;;;;161.48;15.38;;;;;;;11.99;100.00;99462.25;4470097;32;20141;-76
2022/10/31 09:23:26;;;;;;;242.15;17.20;;;;;;;12.05;100.00;99464.34;4469659;32;20097;-76
2022/10/31 09:25:54;;;;;;;96.03;15.93;;;;;;;12.06;100.00;99461.59;4469640;32;20197;-76
2022/10/31 09:28:23;;;;;;;178.93;19.58;;;;;;;11.98;100.00;99465.84;4469770;32;20545;-76
2022/10/31 09:30:52;;;;;;;80.93;14.43;;;;;;;11.85;100.00;99466.84;4469905;32;20100;-76
2022/10/31 09:33:20;;;;;;;295.02;22.48;;;;;;;11.87;100.00;99471.97;4469828;32;20119;-76
2022/10/31 09:35:50;;;;;;;288.98;20.80;;;;;;;11.91;100.00;99465.47;4469250;32;20088;-76
2022/10/31 09:38:19;;;;;;;294.05;21.40;;;;;;;11.82;100.00;99467.06;4469768;32;20446;-76
2022/10/31 09:40:54;;;;;;;248.80;21.70;;;;;;;11.64;100.00;99463.38;4470131;32;20123;-76
2022/10/31 09:43:48;;;;;;;312.45;24.75;;;;;;;11.56;100.00;99463.19;4469954;32;20081;-76
2022/10/31 09:46:26;;;;;;;329.42;24.42;;;;;;;11.57;100.00;99465.66;4469670;32;20446;-76
2022/10/31 09:49:12;;;;;;;196.68;21.73;;;;;;;11.66;100.00;99466.72;4468541;32;20089;-76
2022/10/31 09:51:49;;;;;;;182.60;20.17;;;;;;;11.64;100.00;99464.22;4469968;32;20111;-76
2022/10/31 09:54:49;;;;;;;175.77;19.55;;;;;;;11.69;100.00;99471.72;4468505;32;20216;-76
2022/10/31 09:57:25;;;;;;;151.90;17.42;;;;;;;11.62;100.00;99465.28;4469637;32;20497;-76
2022/10/31 09:59:53;;;;;;;233.40;22.67;;;;;;;11.64;100.00;99460.75;4468511;32;20461;-76
2022/10/31 10:02:25;;;;;;;174.55;20.10;;;;;;;11.53;100.00;99459.00;4468445;32;20150;-76
2022/10/31 10:05:05;;;;;;;164.23;19.50;;;;;;;11.50;100.00;99457.44;4454898;32;20126;-76
2022/10/31 10:07:39;;;;;;;193.00;20.15;;;;;;;11.69;100.00;99464.66;4456488;32;20125;-76
2022/10/31 10:10:31;;;;;;;51.45;15.40;;;;;;;11.67;100.00;99463.97;4469550;32;20427;-76
2022/10/31 10:13:20;;;;;;;175.07;19.77;;;;;;;11.75;100.00;99460.69;4468373;32;20113;-76
2022/10/31 10:16:13;;;;;;;283.02;21.25;;;;;;;11.78;100.00;99460.44;4469405;32;20656;-76
2022/10/31 10:18:53;;;;;;;277.58;23.27;;;;;;;11.52;100.00;99450.31;4468157;32;20137;-76
2022/10/31 10:21:31;;;;;;;390.08;32.05;;;;;;;11.58;100.00;99456.00;4468200;32;20132;-76
2022/10/31 10:24:18;;;;;;;151.32;17.23;;;;;;;11.54;100.00;99447.56;4469676;32;20128;-76
2022/10/31 10:27:21;;;;;;;218.45;19.65;;;;;;;11.52;100.00;99447.69;4469176;32;20501;-75
2022/10/31 10:29:58;;;;;;;146.10;18.58;;;;;;;11.42;100.00;99453.81;4468026;32;20081;-76
2022/10/31 10:32:31;;;;;;;204.95;22.45;;;;;;;11.41;100.00;99445.09;4469317;32;20111;-76
2022/10/31 10:35:21;;;;;;;259.10;26.10;;;;;;;11.59;100.00;99445.37;4467921;32;20109;-76
2022/10/31 10:37:51;;;;;;;118.35;15.95;;;;;;;11.63;100.00;99445.97;4469215;32;20159;-76
2022/10/31 10:40:24;;;;;;;140.60;19.23;;;;;;;11.65;100.00;99449.28;4467754;32;20093;-76
2022/10/31 10:43:22;;;;;;;;;;;;;;;11.55;100.00;99446.56;4469425;32;20472;-76
2022/10/31 10:48:53;;;;;;;87.47;14.43;;;;;;;11.68;100.00;99449.03;4468099;32;20127;-76
2022/10/31 10:51:23;;;;;;;78.97;14.50;;;;;;;11.41;100.00;99445.09;4469057;32;20081;-76
2022/10/31 10:54:19;;;;;;;70.00;12.88;;;;;;;11.53;100.00;99446.69;4469382;32;20097;-76
2022/10/31 10:56:55;;;;;;;89.32;13.45;;;;;;;11.64;100.00;99445.84;4468014;32;20104;-76
2022/10/31 10:59:23;;;;;;;41.75;12.70;;;;;;;11.75;100.00;99449.34;4467825;32;20111;-76
2022/10/31 11:01:51;;;;;;;46.25;13.10;;;;;;;11.84;100.00;99449.44;4467659;32;20179;-76
2022/10/31 11:04:34;;;;;;;112.53;16.85;;;;;;;11.98;100.00;99450.09;4478594;32;20128;-76
2022/10/31 11:07:06;;;;;;;97.70;15.32;;;;;;;11.87;100.00;99446.53;4483662;31;20096;-76
2022/10/31 11:09:35;;;;;;;133.95;16.60;;;;;;;11.61;100.00;99440.84;4467322;32;20077;-76
2022/10/31 11:12:29;;;;;;;91.05;15.52;;;;;;;11.50;100.00;99441.72;4468882;32;20085;-76
2022/10/31 11:15:00;;;;;;;;;;;;;;;11.64;100.00;99437.97;4468887;32;20148;-76
2022/10/31 11:17:38;;;;;;;252.18;20.58;;;;;;;11.70;100.00;99434.84;4468629;32;20094;-76
2022/10/31 11:20:28;;;;;;;223.55;18.70;;;;;;;11.63;100.00;99438.09;4468527;32;20111;-76
2022/10/31 11:23:23;;;;;;;142.50;16.12;;;;;;;11.42;100.00;99427.59;4468618;32;20557;-76
2022/10/31 11:26:05;;;;;;;156.10;16.12;;;;;;;11.50;100.00;99433.84;4466721;32;20097;-76
2022/10/31 11:28:34;;;;;;;101.65;15.50;;;;;;;11.65;100.00;99423.88;4468305;32;20166;-76
2022/10/31 11:31:28;;;;;;;159.23;16.80;;;;;;;11.63;100.00;99428.41;4468223;32;20102;-76